sensor_id;sensor_type;location;lat;lon;timestamp;pressure;altitude;pressure_sealevel;temperature;humidity
70925;BME280;58577;52.410;13.242;2022-07-23T00:02:39;101285.22;;;15.60;84.38
70925;BME280;58577;52.410;13.242;2022-07-23T00:05:25;101276.06;;;15.52;84.52
70925;BME280;58577;52.410;13.242;2022-07-23T00:08:11;101277.25;;;15.50;85.22
70925;BME280;58577;52.410;13.242;2022-07-23T00:10:57;101278.09;;;15.42;85.15
70925;BME280;58577;52.410;13.242;2022-07-23T00:13:43;101278.78;;;15.44;85.48
70925;BME280;58577;52.410;13.242;2022-07-23T00:16:29;101286.22;;;15.42;84.99
70925;BME280;58577;52.410;13.242;2022-07-23T00:19:15;101275.56;;;15.41;85.55
70925;BME280;58577;52.410;13.242;2022-07-23T00:22:01;101282.16;;;15.38;85.73
70925;BME280;58577;52.410;13.242;2022-07-23T00:24:47;101273.50;;;15.34;85.92
70925;BME280;58577;52.410;13.242;2022-07-23T00:27:33;101274.72;;;15.40;86.08
70925;BME280;58577;52.410;13.242;2022-07-23T00:30:18;101273.22;;;15.46;85.69
70925;BME280;58577;52.410;13.242;2022-07-23T00:33:06;101270.00;;;15.50;84.83
70925;BME280;58577;52.410;13.242;2022-07-23T00:35:52;101282.69;;;15.66;84.46
70925;BME280;58577;52.410;13.242;2022-07-23T00:38:38;101282.91;;;15.73;84.01
70925;BME280;58577;52.410;13.242;2022-07-23T00:41:24;101277.09;;;15.60;84.67
70925;BME280;58577;52.410;13.242;2022-07-23T00:44:18;101262.72;;;15.51;85.19
70925;BME280;58577;52.410;13.242;2022-07-23T00:47:05;101256.97;;;15.46;84.87
70925;BME280;58577;52.410;13.242;2022-07-23T00:49:54;101267.63;;;15.47;84.72
70925;BME280;58577;52.410;13.242;2022-07-23T00:52:40;101278.09;;;15.59;85.00
70925;BME280;58577;52.410;13.242;2022-07-23T00:55:26;101277.94;;;15.60;84.73
70925;BME280;58577;52.410;13.242;2022-07-23T00:58:12;101281.00;;;15.65;84.52
70925;BME280;58577;52.410;13.242;2022-07-23T01:00:58;101273.72;;;15.58;84.66
70925;BME280;58577;52.410;13.242;2022-07-23T01:03:44;101278.09;;;15.50;84.22
70925;BME280;58577;52.410;13.242;2022-07-23T01:06:35;101275.06;;;15.53;84.91
70925;BME280;58577;52.410;13.242;2022-07-23T01:09:21;101268.31;;;15.49;84.71
70925;BME280;58577;52.410;13.242;2022-07-23T01:12:08;101271.34;;;15.46;85.14
70925;BME280;58577;52.410;13.242;2022-07-23T01:14:54;101269.31;;;15.40;84.86
70925;BME280;58577;52.410;13.242;2022-07-23T01:17:41;101260.16;;;15.33;85.70
70925;BME280;58577;52.410;13.242;2022-07-23T01:20:27;101267.94;;;15.28;85.47
70925;BME280;58577;52.410;13.242;2022-07-23T01:23:13;101255.06;;;15.22;85.44
70925;BME280;58577;52.410;13.242;2022-07-23T01:26:05;101255.72;;;15.24;85.87
70925;BME280;58577;52.410;13.242;2022-07-23T01:28:51;101252.03;;;15.17;86.12
70925;BME280;58577;52.410;13.242;2022-07-23T01:31:37;101244.22;;;15.13;86.38
70925;BME280;58577;52.410;13.242;2022-07-23T01:34:22;101242.56;;;15.12;86.85
70925;BME280;58577;52.410;13.242;2022-07-23T01:37:08;101241.16;;;15.08;86.84
70925;BME280;58577;52.410;13.242;2022-07-23T01:39:54;101246.56;;;15.08;86.68
70925;BME280;58577;52.410;13.242;2022-07-23T01:42:41;101242.34;;;15.06;86.93
70925;BME280;58577;52.410;13.242;2022-07-23T01:45:27;101241.38;;;15.15;86.74
70925;BME280;58577;52.410;13.242;2022-07-23T01:48:13;101239.34;;;15.17;85.46
70925;BME280;58577;52.410;13.242;2022-07-23T01:51:08;101234.78;;;15.26;85.79
70925;BME280;58577;52.410;13.242;2022-07-23T01:54:01;101243.75;;;15.26;84.94
70925;BME280;58577;52.410;13.242;2022-07-23T01:56:47;101251.38;;;15.31;85.45
70925;BME280;58577;52.410;13.242;2022-07-23T01:59:33;101245.63;;;15.34;84.41
70925;BME280;58577;52.410;13.242;2022-07-23T02:02:20;101232.63;;;15.38;83.81
70925;BME280;58577;52.410;13.242;2022-07-23T02:05:06;101225.38;;;15.46;82.74
70925;BME280;58577;52.410;13.242;2022-07-23T02:07:52;101223.69;;;15.53;82.77
70925;BME280;58577;52.410;13.242;2022-07-23T02:10:37;101217.78;;;15.58;82.02
70925;BME280;58577;52.410;13.242;2022-07-23T02:13:23;101229.44;;;15.67;82.12
70925;BME280;58577;52.410;13.242;2022-07-23T02:16:09;101228.75;;;15.57;81.59
70925;BME280;58577;52.410;13.242;2022-07-23T02:18:55;101235.19;;;15.56;81.73
70925;BME280;58577;52.410;13.242;2022-07-23T02:21:41;101232.81;;;15.52;82.11
70925;BME280;58577;52.410;13.242;2022-07-23T02:24:27;101230.81;;;15.63;80.84
70925;BME280;58577;52.410;13.242;2022-07-23T02:27:14;101242.94;;;15.59;82.35
70925;BME280;58577;52.410;13.242;2022-07-23T02:30:01;101234.34;;;15.55;81.18
70925;BME280;58577;52.410;13.242;2022-07-23T02:32:46;101233.84;;;15.68;80.08
70925;BME280;58577;52.410;13.242;2022-07-23T02:35:32;101239.91;;;15.53;80.21
70925;BME280;58577;52.410;13.242;2022-07-23T02:38:21;101228.59;;;15.50;80.74
70925;BME280;58577;52.410;13.242;2022-07-23T02:41:07;101236.03;;;15.48;80.46
70925;BME280;58577;52.410;13.242;2022-07-23T02:43:53;101237.84;;;15.39;80.14
70925;BME280;58577;52.410;13.242;2022-07-23T02:46:39;101239.41;;;15.42;80.79
70925;BME280;58577;52.410;13.242;2022-07-23T02:49:25;101239.41;;;15.42;80.65
70925;BME280;58577;52.410;13.242;2022-07-23T02:52:11;101227.75;;;15.49;79.56
70925;BME280;58577;52.410;13.242;2022-07-23T02:54:57;101224.69;;;15.44;80.80
70925;BME280;58577;52.410;13.242;2022-07-23T02:57:43;101228.06;;;15.46;80.60
70925;BME280;58577;52.410;13.242;2022-07-23T03:00:31;101239.56;;;15.32;80.59
70925;BME280;58577;52.410;13.242;2022-07-23T03:03:17;101229.75;;;15.31;80.65
70925;BME280;58577;52.410;13.242;2022-07-23T03:06:03;101232.13;;;15.34;80.38
70925;BME280;58577;52.410;13.242;2022-07-23T03:08:48;101236.81;;;15.24;80.78
70925;BME280;58577;52.410;13.242;2022-07-23T03:11:35;101236.81;;;15.24;81.05
70925;BME280;58577;52.410;13.242;2022-07-23T03:14:20;101231.44;;;15.32;81.11
70925;BME280;58577;52.410;13.242;2022-07-23T03:17:06;101229.22;;;15.27;80.98
70925;BME280;58577;52.410;13.242;2022-07-23T03:19:52;101241.75;;;15.28;80.80
70925;BME280;58577;52.410;13.242;2022-07-23T03:22:38;101246.94;;;15.22;81.30
70925;BME280;58577;52.410;13.242;2022-07-23T03:25:24;101242.22;;;15.16;81.83
70925;BME280;58577;52.410;13.242;2022-07-23T03:28:10;101254.38;;;15.20;81.96
70925;BME280;58577;52.410;13.242;2022-07-23T03:30:56;101255.06;;;15.22;81.57
70925;BME280;58577;52.410;13.242;2022-07-23T03:33:42;101268.94;;;15.27;81.57
70925;BME280;58577;52.410;13.242;2022-07-23T03:36:28;101272.00;;;15.32;80.90
70925;BME280;58577;52.410;13.242;2022-07-23T03:39:15;101277.22;;;15.33;80.38
70925;BME280;58577;52.410;13.242;2022-07-23T03:42:01;101292.31;;;15.52;79.74
70925;BME280;58577;52.410;13.242;2022-07-23T03:44:47;101303.47;;;15.49;79.74
70925;BME280;58577;52.410;13.242;2022-07-23T03:47:33;101311.91;;;15.46;79.81
70925;BME280;58577;52.410;13.242;2022-07-23T03:50:19;101298.91;;;15.50;79.52
70925;BME280;58577;52.410;13.242;2022-07-23T03:53:05;101293.34;;;15.51;79.95
70925;BME280;58577;52.410;13.242;2022-07-23T03:55:52;101307.53;;;15.53;79.83
70925;BME280;58577;52.410;13.242;2022-07-23T03:58:38;101282.66;;;15.50;82.02
70925;BME280;58577;52.410;13.242;2022-07-23T04:01:24;101261.25;;;15.65;79.57
70925;BME280;58577;52.410;13.242;2022-07-23T04:04:10;101254.75;;;15.41;81.56
70925;BME280;58577;52.410;13.242;2022-07-23T04:06:58;101274.34;;;15.27;82.76
70925;BME280;58577;52.410;13.242;2022-07-23T04:09:44;101267.72;;;15.21;82.96
70925;BME280;58577;52.410;13.242;2022-07-23T04:12:30;101270.81;;;15.26;81.64
70925;BME280;58577;52.410;13.242;2022-07-23T04:15:16;101253.59;;;15.36;81.62
70925;BME280;58577;52.410;13.242;2022-07-23T04:18:02;101234.84;;;15.50;79.86
70925;BME280;58577;52.410;13.242;2022-07-23T04:20:57;101224.34;;;15.31;81.99
70925;BME280;58577;52.410;13.242;2022-07-23T04:23:43;101232.06;;;15.09;83.34
70925;BME280;58577;52.410;13.242;2022-07-23T04:26:29;101257.50;;;14.90;86.73
70925;BME280;58577;52.410;13.242;2022-07-23T04:29:14;101263.06;;;14.89;87.49
70925;BME280;58577;52.410;13.242;2022-07-23T04:32:01;101273.53;;;14.84;89.52
70925;BME280;58577;52.410;13.242;2022-07-23T04:34:47;101290.81;;;14.65;89.47
70925;BME280;58577;52.410;13.242;2022-07-23T04:37:33;101294.69;;;14.62;89.70
70925;BME280;58577;52.410;13.242;2022-07-23T04:40:18;101306.91;;;14.74;90.92
70925;BME280;58577;52.410;13.242;2022-07-23T04:43:04;101316.22;;;14.80;91.01
70925;BME280;58577;52.410;13.242;2022-07-23T04:45:54;101314.34;;;14.81;90.81
70925;BME280;58577;52.410;13.242;2022-07-23T04:48:40;101298.63;;;14.50;90.99
70925;BME280;58577;52.410;13.242;2022-07-23T04:51:28;101290.31;;;14.43;94.03
70925;BME280;58577;52.410;13.242;2022-07-23T04:54:15;101272.38;;;14.34;94.12
70925;BME280;58577;52.410;13.242;2022-07-23T04:57:03;101289.72;;;14.31;94.42
70925;BME280;58577;52.410;13.242;2022-07-23T04:59:49;101276.25;;;14.31;94.74
70925;BME280;58577;52.410;13.242;2022-07-23T05:02:35;101292.75;;;14.28;94.17
70925;BME280;58577;52.410;13.242;2022-07-23T05:05:21;101285.56;;;14.19;93.26
70925;BME280;58577;52.410;13.242;2022-07-23T05:08:06;101284.16;;;14.07;93.78
70925;BME280;58577;52.410;13.242;2022-07-23T05:10:56;101283.47;;;14.05;94.69
70925;BME280;58577;52.410;13.242;2022-07-23T05:13:42;101285.22;;;14.14;95.46
70925;BME280;58577;52.410;13.242;2022-07-23T05:16:28;101272.81;;;14.03;95.56
70925;BME280;58577;52.410;13.242;2022-07-23T05:19:19;101275.28;;;14.14;95.98
70925;BME280;58577;52.410;13.242;2022-07-23T05:22:05;101262.03;;;14.03;96.08
70925;BME280;58577;52.410;13.242;2022-07-23T05:24:51;101260.66;;;13.99;95.62
70925;BME280;58577;52.410;13.242;2022-07-23T05:27:37;101282.19;;;14.17;97.21
70925;BME280;58577;52.410;13.242;2022-07-23T05:30:23;101295.97;;;14.32;97.26
70925;BME280;58577;52.410;13.242;2022-07-23T05:33:13;101300.03;;;14.36;96.91
70925;BME280;58577;52.410;13.242;2022-07-23T05:36:01;101291.41;;;14.32;96.04
70925;BME280;58577;52.410;13.242;2022-07-23T05:38:49;101289.66;;;14.23;96.39
70925;BME280;58577;52.410;13.242;2022-07-23T05:41:35;101309.22;;;14.25;96.75
70925;BME280;58577;52.410;13.242;2022-07-23T05:44:22;101313.19;;;14.13;95.39
70925;BME280;58577;52.410;13.242;2022-07-23T05:47:08;101304.81;;;14.16;96.51
70925;BME280;58577;52.410;13.242;2022-07-23T05:49:54;101337.31;;;14.32;97.42
70925;BME280;58577;52.410;13.242;2022-07-23T05:52:53;101329.09;;;14.42;97.46
70925;BME280;58577;52.410;13.242;2022-07-23T05:55:59;101314.81;;;14.24;96.86
70925;BME280;58577;52.410;13.242;2022-07-23T05:58:45;101311.44;;;14.22;97.30
70925;BME280;58577;52.410;13.242;2022-07-23T06:01:33;101296.16;;;14.12;97.22
70925;BME280;58577;52.410;13.242;2022-07-23T06:04:27;101285.22;;;14.14;98.31
70925;BME280;58577;52.410;13.242;2022-07-23T06:07:31;101291.69;;;14.03;97.71
70925;BME280;58577;52.410;13.242;2022-07-23T06:10:17;101309.66;;;14.12;98.25
70925;BME280;58577;52.410;13.242;2022-07-23T06:13:03;101286.50;;;14.10;98.43
70925;BME280;58577;52.410;13.242;2022-07-23T06:15:49;101298.13;;;14.28;99.38
70925;BME280;58577;52.410;13.242;2022-07-23T06:18:35;101292.44;;;14.31;99.94
70925;BME280;58577;52.410;13.242;2022-07-23T06:21:21;101284.94;;;14.25;99.21
70925;BME280;58577;52.410;13.242;2022-07-23T06:24:06;101282.56;;;14.22;99.03
70925;BME280;58577;52.410;13.242;2022-07-23T06:26:52;101274.94;;;14.18;98.79
70925;BME280;58577;52.410;13.242;2022-07-23T06:29:38;101275.81;;;14.18;98.83
70925;BME280;58577;52.410;13.242;2022-07-23T06:32:26;101276.25;;;14.31;99.82
70925;BME280;58577;52.410;13.242;2022-07-23T06:35:12;101277.63;;;14.35;99.06
70925;BME280;58577;52.410;13.242;2022-07-23T06:37:57;101268.50;;;14.36;98.57
70925;BME280;58577;52.410;13.242;2022-07-23T06:40:43;101265.88;;;14.45;99.08
70925;BME280;58577;52.410;13.242;2022-07-23T06:43:30;101255.00;;;14.36;97.67
70925;BME280;58577;52.410;13.242;2022-07-23T06:46:17;101258.63;;;14.53;98.50
70925;BME280;58577;52.410;13.242;2022-07-23T06:49:03;101253.22;;;14.45;97.29
70925;BME280;58577;52.410;13.242;2022-07-23T06:51:49;101251.50;;;14.44;97.86
70925;BME280;58577;52.410;13.242;2022-07-23T06:54:35;101265.34;;;14.41;97.43
70925;BME280;58577;52.410;13.242;2022-07-23T06:57:21;101261.16;;;14.47;97.85
70925;BME280;58577;52.410;13.242;2022-07-23T07:00:09;101287.28;;;14.64;97.99
70925;BME280;58577;52.410;13.242;2022-07-23T07:02:55;101297.47;;;14.79;98.75
70925;BME280;58577;52.410;13.242;2022-07-23T07:05:41;101305.47;;;14.97;98.04
70925;BME280;58577;52.410;13.242;2022-07-23T07:08:27;101303.56;;;14.89;96.64
70925;BME280;58577;52.410;13.242;2022-07-23T07:11:12;101305.97;;;14.92;95.55
70925;BME280;58577;52.410;13.242;2022-07-23T07:13:58;101304.25;;;14.91;95.13
70925;BME280;58577;52.410;13.242;2022-07-23T07:16:44;101323.94;;;15.09;96.71
70925;BME280;58577;52.410;13.242;2022-07-23T07:19:30;101306.22;;;15.07;96.13
70925;BME280;58577;52.410;13.242;2022-07-23T07:22:16;101309.44;;;15.10;95.93
70925;BME280;58577;52.410;13.242;2022-07-23T07:25:02;101292.03;;;15.13;96.33
70925;BME280;58577;52.410;13.242;2022-07-23T07:27:48;101296.47;;;15.22;96.01
70925;BME280;58577;52.410;13.242;2022-07-23T07:30:33;101290.72;;;15.33;94.08
70925;BME280;58577;52.410;13.242;2022-07-23T07:33:19;101287.56;;;15.46;95.42
70925;BME280;58577;52.410;13.242;2022-07-23T07:36:06;101296.72;;;15.45;93.63
70925;BME280;58577;52.410;13.242;2022-07-23T07:38:52;101286.94;;;15.69;95.81
70925;BME280;58577;52.410;13.242;2022-07-23T07:41:38;101289.44;;;15.54;94.91
70925;BME280;58577;52.410;13.242;2022-07-23T07:44:24;101288.44;;;15.63;95.63
70925;BME280;58577;52.410;13.242;2022-07-23T07:47:10;101280.47;;;15.45;94.82
70925;BME280;58577;52.410;13.242;2022-07-23T07:49:55;101276.13;;;15.61;93.65
70925;BME280;58577;52.410;13.242;2022-07-23T07:52:41;101267.69;;;15.80;93.60
70925;BME280;58577;52.410;13.242;2022-07-23T07:55:28;101252.47;;;15.96;93.16
70925;BME280;58577;52.410;13.242;2022-07-23T07:58:14;101263.13;;;16.86;88.62
70925;BME280;58577;52.410;13.242;2022-07-23T08:01:00;101269.72;;;17.23;87.45
70925;BME280;58577;52.410;13.242;2022-07-23T08:03:46;101282.34;;;17.93;87.49
70925;BME280;58577;52.410;13.242;2022-07-23T08:06:32;101289.34;;;17.87;86.27
70925;BME280;58577;52.410;13.242;2022-07-23T08:09:17;101272.88;;;17.81;82.11
70925;BME280;58577;52.410;13.242;2022-07-23T08:12:03;101276.00;;;18.01;80.82
70925;BME280;58577;52.410;13.242;2022-07-23T08:14:49;101275.47;;;18.20;82.53
70925;BME280;58577;52.410;13.242;2022-07-23T08:17:35;101272.63;;;17.99;78.81
70925;BME280;58577;52.410;13.242;2022-07-23T08:20:22;101276.66;;;18.03;81.72
70925;BME280;58577;52.410;13.242;2022-07-23T08:23:08;101278.63;;;18.47;79.34
70925;BME280;58577;52.410;13.242;2022-07-23T08:25:54;101278.63;;;19.43;79.85
70925;BME280;58577;52.410;13.242;2022-07-23T08:28:42;101281.88;;;19.17;77.74
70925;BME280;58577;52.410;13.242;2022-07-23T08:31:28;101275.69;;;19.23;75.77
70925;BME280;58577;52.410;13.242;2022-07-23T08:34:14;101283.09;;;19.51;78.98
70925;BME280;58577;52.410;13.242;2022-07-23T08:37:00;101302.00;;;18.86;74.79
70925;BME280;58577;52.410;13.242;2022-07-23T08:39:46;101300.53;;;19.56;75.10
70925;BME280;58577;52.410;13.242;2022-07-23T08:42:32;101282.66;;;20.61;75.54
70925;BME280;58577;52.410;13.242;2022-07-23T08:45:23;101284.19;;;20.49;72.34
70925;BME280;58577;52.410;13.242;2022-07-23T08:48:18;101269.50;;;19.51;73.28
70925;BME280;58577;52.410;13.242;2022-07-23T08:51:06;101292.84;;;20.88;71.42
70925;BME280;58577;52.410;13.242;2022-07-23T08:53:52;101305.81;;;21.89;68.62
70925;BME280;58577;52.410;13.242;2022-07-23T08:56:38;101318.09;;;21.45;67.44
70925;BME280;58577;52.410;13.242;2022-07-23T08:59:24;101336.03;;;21.74;66.15
70925;BME280;58577;52.410;13.242;2022-07-23T09:02:12;101310.56;;;20.64;68.95
70925;BME280;58577;52.410;13.242;2022-07-23T09:04:58;101327.28;;;20.95;66.84
70925;BME280;58577;52.410;13.242;2022-07-23T09:08:04;101320.97;;;22.25;66.52
70925;BME280;58577;52.410;13.242;2022-07-23T09:10:53;101327.28;;;22.58;64.03
70925;BME280;58577;52.410;13.242;2022-07-23T09:13:49;101388.22;;;22.92;59.48
70925;BME280;58577;52.410;13.242;2022-07-23T09:16:35;101290.94;;;21.30;65.52
70925;BME280;58577;52.410;13.242;2022-07-23T09:19:27;101303.50;;;21.24;67.21
70925;BME280;58577;52.410;13.242;2022-07-23T09:22:19;101312.19;;;20.93;68.44
70925;BME280;58577;52.410;13.242;2022-07-23T09:27:57;101312.78;;;20.03;73.00
70925;BME280;58577;52.410;13.242;2022-07-23T09:30:43;101319.56;;;20.14;72.88
70925;BME280;58577;52.410;13.242;2022-07-23T09:33:34;101330.75;;;19.76;70.72
70925;BME280;58577;52.410;13.242;2022-07-23T09:36:28;101322.13;;;19.94;72.99
70925;BME280;58577;52.410;13.242;2022-07-23T09:39:16;101327.25;;;21.30;68.23
70925;BME280;58577;52.410;13.242;2022-07-23T09:42:14;101327.81;;;21.54;66.50
70925;BME280;58577;52.410;13.242;2022-07-23T09:45:01;101335.22;;;21.25;65.58
70925;BME280;58577;52.410;13.242;2022-07-23T09:47:47;101316.13;;;21.32;67.74
70925;BME280;58577;52.410;13.242;2022-07-23T09:50:32;101319.34;;;21.00;68.41
70925;BME280;58577;52.410;13.242;2022-07-23T09:53:24;101330.09;;;21.09;68.01
70925;BME280;58577;52.410;13.242;2022-07-23T09:56:13;101378.13;;;23.06;61.82
70925;BME280;58577;52.410;13.242;2022-07-23T09:59:00;101387.50;;;23.89;56.64
70925;BME280;58577;52.410;13.242;2022-07-23T10:01:58;101379.34;;;24.39;55.29
70925;BME280;58577;52.410;13.242;2022-07-23T10:04:45;101334.72;;;23.23;60.03
70925;BME280;58577;52.410;13.242;2022-07-23T10:07:37;101321.38;;;21.95;60.79
70925;BME280;58577;52.410;13.242;2022-07-23T10:10:45;101312.69;;;21.58;63.03
70925;BME280;58577;52.410;13.242;2022-07-23T10:13:54;101329.88;;;21.04;62.32
70925;BME280;58577;52.410;13.242;2022-07-23T10:17:11;101333.28;;;20.77;63.10
70925;BME280;58577;52.410;13.242;2022-07-23T10:19:57;101331.09;;;21.01;64.51
70925;BME280;58577;52.410;13.242;2022-07-23T10:23:18;101346.72;;;21.14;62.55
70925;BME280;58577;52.410;13.242;2022-07-23T10:32:07;101345.63;;;21.08;62.94
70925;BME280;58577;52.410;13.242;2022-07-23T10:41:09;101381.00;;;21.78;61.06
70925;BME280;58577;52.410;13.242;2022-07-23T10:44:12;101378.03;;;21.66;58.50
70925;BME280;58577;52.410;13.242;2022-07-23T10:47:01;101370.19;;;21.15;59.52
70925;BME280;58577;52.410;13.242;2022-07-23T10:49:48;101364.69;;;21.01;60.27
70925;BME280;58577;52.410;13.242;2022-07-23T10:52:34;101338.00;;;20.90;63.85
70925;BME280;58577;52.410;13.242;2022-07-23T10:58:17;101373.88;;;21.35;60.32
70925;BME280;58577;52.410;13.242;2022-07-23T11:01:36;101369.81;;;21.18;60.03
70925;BME280;58577;52.410;13.242;2022-07-23T11:04:52;101353.31;;;22.08;59.66
70925;BME280;58577;52.410;13.242;2022-07-23T11:11:08;101361.56;;;22.34;56.87
70925;BME280;58577;52.410;13.242;2022-07-23T11:13:55;101361.53;;;22.14;57.73
70925;BME280;58577;52.410;13.242;2022-07-23T11:16:47;101334.59;;;22.11;60.08
70925;BME280;58577;52.410;13.242;2022-07-23T11:22:58;101343.63;;;22.92;57.15
70925;BME280;58577;52.410;13.242;2022-07-23T11:25:44;101361.59;;;23.91;53.82
70925;BME280;58577;52.410;13.242;2022-07-23T11:28:31;101368.75;;;24.75;51.87
70925;BME280;58577;52.410;13.242;2022-07-23T11:31:17;101364.94;;;24.94;51.45
70925;BME280;58577;52.410;13.242;2022-07-23T11:34:31;101379.38;;;25.26;48.70
70925;BME280;58577;52.410;13.242;2022-07-23T11:37:36;101355.59;;;25.69;49.41
70925;BME280;58577;52.410;13.242;2022-07-23T11:40:22;101342.19;;;25.30;49.02
70925;BME280;58577;52.410;13.242;2022-07-23T11:43:09;101339.34;;;25.37;49.79
70925;BME280;58577;52.410;13.242;2022-07-23T11:45:59;101370.00;;;25.83;46.39
70925;BME280;58577;52.410;13.242;2022-07-23T11:48:45;101350.59;;;25.96;46.78
70925;BME280;58577;52.410;13.242;2022-07-23T11:51:31;101355.59;;;26.65;46.03
70925;BME280;58577;52.410;13.242;2022-07-23T11:54:18;101347.09;;;26.43;45.93
70925;BME280;58577;52.410;13.242;2022-07-23T11:57:04;101341.56;;;26.31;46.92
70925;BME280;58577;52.410;13.242;2022-07-23T11:59:53;101351.25;;;26.45;45.43
70925;BME280;58577;52.410;13.242;2022-07-23T12:02:45;101319.63;;;25.70;49.25
70925;BME280;58577;52.410;13.242;2022-07-23T12:05:35;101341.25;;;25.00;47.79
70925;BME280;58577;52.410;13.242;2022-07-23T12:08:21;101333.47;;;24.53;48.42
70925;BME280;58577;52.410;13.242;2022-07-23T12:11:07;101331.22;;;24.18;49.98
70925;BME280;58577;52.410;13.242;2022-07-23T12:13:57;101324.38;;;23.70;50.61
70925;BME280;58577;52.410;13.242;2022-07-23T12:16:42;101303.09;;;23.34;53.78
70925;BME280;58577;52.410;13.242;2022-07-23T12:19:29;101322.50;;;23.19;52.30
70925;BME280;58577;52.410;13.242;2022-07-23T12:22:15;101321.53;;;23.07;53.07
70925;BME280;58577;52.410;13.242;2022-07-23T12:25:05;101303.41;;;22.92;55.45
70925;BME280;58577;52.410;13.242;2022-07-23T12:30:53;101326.44;;;22.51;54.10
70925;BME280;58577;52.410;13.242;2022-07-23T12:33:40;101318.63;;;22.62;54.99
70925;BME280;58577;52.410;13.242;2022-07-23T12:36:37;101332.75;;;22.38;53.13
70925;BME280;58577;52.410;13.242;2022-07-23T12:39:30;101314.03;;;23.34;54.09
70925;BME280;58577;52.410;13.242;2022-07-23T12:42:16;101340.88;;;23.96;49.10
70925;BME280;58577;52.410;13.242;2022-07-23T12:47:52;101348.75;;;24.86;45.81
70925;BME280;58577;52.410;13.242;2022-07-23T12:53:42;101310.47;;;24.04;50.09
70925;BME280;58577;52.410;13.242;2022-07-23T12:56:30;101337.09;;;24.72;46.76
70925;BME280;58577;52.410;13.242;2022-07-23T12:59:16;101331.31;;;24.80;48.11
70925;BME280;58577;52.410;13.242;2022-07-23T13:02:02;101333.22;;;25.35;46.86
70925;BME280;58577;52.410;13.242;2022-07-23T13:04:48;101335.06;;;25.41;45.94
70925;BME280;58577;52.410;13.242;2022-07-23T13:07:34;101310.88;;;25.92;46.60
70925;BME280;58577;52.410;13.242;2022-07-23T13:10:20;101323.28;;;25.83;45.05
70925;BME280;58577;52.410;13.242;2022-07-23T13:13:12;101316.22;;;25.08;47.26
70925;BME280;58577;52.410;13.242;2022-07-23T13:15:58;101298.47;;;24.48;49.02
70925;BME280;58577;52.410;13.242;2022-07-23T13:18:44;101308.81;;;24.46;47.96
70925;BME280;58577;52.410;13.242;2022-07-23T13:21:30;101314.38;;;24.65;47.37
70925;BME280;58577;52.410;13.242;2022-07-23T13:24:16;101319.50;;;24.61;48.30
70925;BME280;58577;52.410;13.242;2022-07-23T13:27:02;101335.81;;;24.93;44.35
70925;BME280;58577;52.410;13.242;2022-07-23T13:29:49;101313.13;;;24.10;47.44
70925;BME280;58577;52.410;13.242;2022-07-23T13:32:34;101301.38;;;23.78;48.84
70925;BME280;58577;52.410;13.242;2022-07-23T13:35:20;101292.69;;;23.49;49.69
70925;BME280;58577;52.410;13.242;2022-07-23T13:38:06;101303.56;;;23.17;48.62
70925;BME280;58577;52.410;13.242;2022-07-23T13:40:55;101306.66;;;24.05;47.73
70925;BME280;58577;52.410;13.242;2022-07-23T13:43:41;101281.81;;;23.68;49.84
70925;BME280;58577;52.410;13.242;2022-07-23T13:46:27;101291.91;;;23.74;49.78
70925;BME280;58577;52.410;13.242;2022-07-23T13:49:13;101301.66;;;23.95;49.62
70925;BME280;58577;52.410;13.242;2022-07-23T13:51:59;101300.63;;;23.58;48.10
70925;BME280;58577;52.410;13.242;2022-07-23T13:54:44;101312.28;;;24.17;47.39
70925;BME280;58577;52.410;13.242;2022-07-23T13:57:32;101314.44;;;24.33;47.69
70925;BME280;58577;52.410;13.242;2022-07-23T14:00:19;101318.28;;;25.31;45.50
70925;BME280;58577;52.410;13.242;2022-07-23T14:03:05;101304.25;;;25.21;45.83
70925;BME280;58577;52.410;13.242;2022-07-23T14:05:52;101301.13;;;24.62;47.14
70925;BME280;58577;52.410;13.242;2022-07-23T14:08:38;101312.88;;;25.24;44.25
70925;BME280;58577;52.410;13.242;2022-07-23T14:11:24;101306.91;;;24.28;44.54
70925;BME280;58577;52.410;13.242;2022-07-23T14:14:10;101304.03;;;24.17;45.08
70925;BME280;58577;52.410;13.242;2022-07-23T14:16:56;101289.81;;;23.69;46.49
70925;BME280;58577;52.410;13.242;2022-07-23T14:19:42;101280.06;;;23.73;47.30
70925;BME280;58577;52.410;13.242;2022-07-23T14:22:28;101283.03;;;23.72;48.20
70925;BME280;58577;52.410;13.242;2022-07-23T14:25:14;101273.13;;;24.53;49.10
70925;BME280;58577;52.410;13.242;2022-07-23T14:28:00;101309.75;;;25.21;44.05
70925;BME280;58577;52.410;13.242;2022-07-23T14:30:46;101283.72;;;24.68;45.92
70925;BME280;58577;52.410;13.242;2022-07-23T14:33:31;101294.19;;;24.34;46.03
70925;BME280;58577;52.410;13.242;2022-07-23T14:36:17;101260.22;;;24.10;49.32
70925;BME280;58577;52.410;13.242;2022-07-23T14:39:03;101285.97;;;24.34;46.65
70925;BME280;58577;52.410;13.242;2022-07-23T14:41:49;101272.13;;;24.47;47.52
70925;BME280;58577;52.410;13.242;2022-07-23T14:44:36;101306.84;;;24.97;42.95
70925;BME280;58577;52.410;13.242;2022-07-23T14:47:22;101306.00;;;25.34;42.24
70925;BME280;58577;52.410;13.242;2022-07-23T14:50:08;101282.78;;;25.48;43.45
70925;BME280;58577;52.410;13.242;2022-07-23T14:52:54;101294.38;;;25.50;42.07
70925;BME280;58577;52.410;13.242;2022-07-23T14:55:40;101287.66;;;25.88;43.78
70925;BME280;58577;52.410;13.242;2022-07-23T14:58:26;101305.66;;;25.72;40.57
70925;BME280;58577;52.410;13.242;2022-07-23T15:01:12;101288.31;;;25.60;42.55